createdAt,value
2017-11-22T00:01:23.772Z,55.00
2017-11-22T00:03:51.296Z,55.20
2017-11-22T00:06:18.792Z,55.20
2017-11-22T00:08:46.319Z,55.40
2017-11-22T00:11:13.831Z,55.50
2017-11-22T00:13:41.360Z,55.30
2017-11-22T00:16:08.855Z,55.50
2017-11-22T00:18:36.381Z,55.50
2017-11-22T00:21:03.892Z,55.50
2017-11-22T00:23:31.440Z,55.50
2017-11-22T00:25:58.966Z,55.60
2017-11-22T00:28:26.468Z,55.70
2017-11-22T00:30:54.005Z,55.60
2017-11-22T00:33:21.507Z,55.40
2017-11-22T00:35:49.037Z,55.50
2017-11-22T00:38:16.545Z,55.40
2017-11-22T00:40:44.067Z,55.50
2017-11-22T00:43:11.563Z,55.70
2017-11-22T00:45:39.083Z,55.60
2017-11-22T00:48:06.583Z,55.70
2017-11-22T00:50:34.110Z,55.80
2017-11-22T00:53:01.621Z,55.70
2017-11-22T00:55:29.159Z,55.70
2017-11-22T00:57:56.671Z,55.70
2017-11-22T01:00:24.180Z,56.30
2017-11-22T01:02:51.701Z,55.80
2017-11-22T01:05:19.196Z,55.80
2017-11-22T01:07:46.725Z,56.00
2017-11-22T01:10:14.224Z,56.00
2017-11-22T01:12:41.743Z,56.00
2017-11-22T01:15:09.259Z,56.00
2017-11-22T01:17:36.784Z,56.00
2017-11-22T01:20:04.284Z,56.00
2017-11-22T01:22:32.590Z,56.10
2017-11-22T01:25:00.137Z,56.10
2017-11-22T01:27:27.648Z,56.00
2017-11-22T01:29:55.181Z,56.20
2017-11-22T01:32:22.688Z,56.40
2017-11-22T01:34:50.972Z,56.50
2017-11-22T01:37:19.251Z,56.50
2017-11-22T01:39:46.776Z,56.40
2017-11-22T01:42:14.284Z,56.40
2017-11-22T01:44:41.809Z,56.50
2017-11-22T01:47:10.076Z,56.40
2017-11-22T01:49:37.620Z,56.30
2017-11-22T01:52:05.133Z,56.30
2017-11-22T01:54:32.677Z,56.20
2017-11-22T01:57:00.187Z,56.20
2017-11-22T01:59:27.687Z,56.30
2017-11-22T02:01:55.975Z,56.30
2017-11-22T02:04:24.248Z,56.10
2017-11-22T02:06:52.732Z,56.30
2017-11-22T02:09:20.991Z,56.40
2017-11-22T02:11:49.283Z,56.30
2017-11-22T02:14:17.564Z,56.50
2017-11-22T02:16:45.864Z,56.50
2017-11-22T02:19:13.364Z,56.50
2017-11-22T02:21:40.880Z,56.50
2017-11-22T02:24:08.384Z,56.50
2017-11-22T02:26:35.911Z,56.60
2017-11-22T02:29:03.415Z,56.70
2017-11-22T02:31:30.949Z,56.70
2017-11-22T02:33:58.457Z,56.70
2017-11-22T02:36:25.985Z,56.70
2017-11-22T02:38:53.477Z,56.90
2017-11-22T02:41:21.003Z,56.90
2017-11-22T02:43:48.500Z,56.80
2017-11-22T02:46:16.036Z,57.00
2017-11-22T02:48:43.536Z,57.20
2017-11-22T02:51:11.081Z,57.30
2017-11-22T02:53:38.591Z,57.30
2017-11-22T02:56:06.100Z,57.40
2017-11-22T02:58:33.623Z,57.30
2017-11-22T03:01:01.138Z,57.40
2017-11-22T03:03:28.676Z,57.90
2017-11-22T03:05:56.175Z,57.30
2017-11-22T03:08:23.705Z,57.30
2017-11-22T03:10:51.969Z,57.40
2017-11-22T03:13:19.487Z,57.30
2017-11-22T03:15:46.987Z,57.30
2017-11-22T03:18:14.508Z,57.30
2017-11-22T03:20:42.008Z,57.30
2017-11-22T03:23:09.551Z,57.20
2017-11-22T03:25:37.059Z,57.20
2017-11-22T03:28:04.648Z,57.20
2017-11-22T03:30:32.155Z,57.20
2017-11-22T03:32:59.681Z,57.30
2017-11-22T03:35:27.970Z,57.30
2017-11-22T03:37:56.264Z,57.30
2017-11-22T03:40:23.771Z,57.20
2017-11-22T03:42:51.274Z,57.30
2017-11-22T03:45:18.799Z,57.30
2017-11-22T03:47:48.128Z,57.30
2017-11-22T03:50:16.456Z,57.30
2017-11-22T03:52:49.507Z,57.40
2017-11-22T03:55:17.024Z,57.40
2017-11-22T03:57:49.306Z,57.30
2017-11-22T04:00:16.828Z,57.30
2017-11-22T04:02:49.868Z,57.40
2017-11-22T04:05:17.385Z,57.50
2017-11-22T04:07:44.889Z,57.60
2017-11-22T04:10:12.410Z,57.60
2017-11-22T04:12:39.903Z,57.60
2017-11-22T04:15:07.433Z,57.70
2017-11-22T04:17:34.927Z,57.80
2017-11-22T04:20:02.446Z,57.70
2017-11-22T04:22:29.952Z,57.70
2017-11-22T04:24:57.468Z,57.80
2017-11-22T04:27:24.972Z,57.80
2017-11-22T04:29:52.498Z,57.90
2017-11-22T04:32:20.007Z,57.90
2017-11-22T04:34:47.532Z,57.90
2017-11-22T04:37:15.803Z,58.00
2017-11-22T04:39:44.101Z,58.00
2017-11-22T04:42:11.611Z,58.00
2017-11-22T04:44:39.131Z,58.00
2017-11-22T04:47:06.637Z,58.10
2017-11-22T04:49:34.155Z,58.00
2017-11-22T04:52:01.654Z,58.00
2017-11-22T04:54:29.196Z,58.00
2017-11-22T04:56:56.723Z,58.00
2017-11-22T04:59:24.224Z,58.00
2017-11-22T05:01:51.744Z,58.00
2017-11-22T05:04:19.247Z,57.90
2017-11-22T05:06:46.763Z,58.00
2017-11-22T05:09:14.272Z,58.10
2017-11-22T05:11:41.797Z,58.10
2017-11-22T05:14:09.309Z,58.10
2017-11-22T05:16:37.599Z,58.20
2017-11-22T05:19:05.108Z,58.10
2017-11-22T05:21:32.636Z,58.00
2017-11-22T05:24:00.128Z,58.00
2017-11-22T05:26:27.652Z,58.10
2017-11-22T05:28:55.154Z,58.10
2017-11-22T05:31:22.674Z,58.00
2017-11-22T05:33:50.212Z,58.00
2017-11-22T05:36:17.744Z,58.10
2017-11-22T05:38:45.247Z,58.20
2017-11-22T05:41:12.772Z,58.70
2017-11-22T05:43:40.289Z,58.00
2017-11-22T05:46:07.805Z,58.00
2017-11-22T05:48:36.086Z,58.00
2017-11-22T05:51:03.601Z,58.00
2017-11-22T05:53:31.128Z,58.00
2017-11-22T05:55:58.626Z,58.00
2017-11-22T05:58:26.219Z,57.90
2017-11-22T06:00:53.740Z,58.00
2017-11-22T06:03:21.272Z,58.00
2017-11-22T06:05:48.792Z,58.10
2017-11-22T06:08:16.317Z,58.00
2017-11-22T06:10:43.830Z,58.10
2017-11-22T06:13:11.348Z,58.10
2017-11-22T06:15:40.336Z,58.10
2017-11-22T06:18:07.871Z,58.00
2017-11-22T06:20:35.386Z,58.00
2017-11-22T06:23:02.913Z,58.00
2017-11-22T06:25:30.430Z,58.60
2017-11-22T06:27:57.984Z,58.10
2017-11-22T06:30:31.319Z,58.10
2017-11-22T06:32:58.853Z,58.20
2017-11-22T06:35:26.365Z,58.20
2017-11-22T06:37:54.661Z,58.30
2017-11-22T06:40:22.178Z,58.20
2017-11-22T06:42:49.688Z,58.30
2017-11-22T06:45:17.218Z,58.30
2017-11-22T06:47:45.493Z,58.40
2017-11-22T06:50:13.047Z,58.30
2017-11-22T06:52:40.569Z,58.40
2017-11-22T06:55:08.110Z,58.50
2017-11-22T06:57:35.624Z,58.50
2017-11-22T07:00:03.148Z,58.50
2017-11-22T07:02:36.369Z,58.50
2017-11-22T07:05:03.991Z,58.50
2017-11-22T07:07:31.512Z,58.60
2017-11-22T07:09:59.813Z,58.70
2017-11-22T07:12:27.348Z,58.30
2017-11-22T07:14:55.632Z,58.80
2017-11-22T07:17:29.829Z,58.90
2017-11-22T07:19:58.127Z,59.00
2017-11-22T07:22:25.636Z,58.90
2017-11-22T07:24:53.161Z,59.00
2017-11-22T07:27:20.673Z,59.00
2017-11-22T07:29:48.201Z,59.00
2017-11-22T07:32:15.700Z,59.10
2017-11-22T07:34:44.023Z,59.00
2017-11-22T07:37:17.290Z,58.90
2017-11-22T07:39:45.605Z,58.80
2017-11-22T07:42:13.123Z,58.70
2017-11-22T07:44:41.380Z,58.90
2017-11-22T07:47:11.668Z,58.60
2017-11-22T07:49:39.173Z,58.50
2017-11-22T07:52:13.077Z,58.40
2017-11-22T07:54:40.590Z,58.40
2017-11-22T07:57:11.016Z,58.30
2017-11-22T07:59:38.524Z,58.20
2017-11-22T08:02:06.037Z,58.10
2017-11-22T08:04:33.543Z,58.00
2017-11-22T08:07:01.837Z,57.80
2017-11-22T08:09:30.099Z,57.80
2017-11-22T08:11:57.607Z,57.70
2017-11-22T08:14:25.107Z,57.60
2017-11-22T08:16:52.950Z,57.60
2017-11-22T08:19:20.452Z,57.50
2017-11-22T08:21:48.735Z,57.20
2017-11-22T08:24:16.998Z,57.00
2017-11-22T08:26:45.274Z,57.00
2017-11-22T08:29:13.554Z,56.90
2017-11-22T08:31:41.862Z,56.60
2017-11-22T08:34:10.143Z,56.50
2017-11-22T08:36:37.664Z,56.40
2017-11-22T08:39:05.958Z,56.10
2017-11-22T08:41:37.282Z,56.00
2017-11-22T08:44:06.603Z,56.00
2017-11-22T08:46:34.879Z,55.50
2017-11-22T08:49:03.204Z,55.30
2017-11-22T08:51:30.712Z,55.20
2017-11-22T08:57:09.542Z,54.40
2017-11-22T08:59:37.056Z,54.30
2017-11-22T09:02:04.575Z,54.90
2017-11-22T09:04:32.851Z,54.00
2017-11-22T09:07:05.095Z,53.80
2017-11-22T09:09:32.617Z,53.70
2017-11-22T09:12:06.756Z,52.30
2017-11-22T09:14:34.297Z,52.30
2017-11-22T09:17:01.819Z,52.10
2017-11-22T09:19:30.094Z,51.70
2017-11-22T09:21:58.370Z,51.40
2017-11-22T09:24:32.277Z,51.00
2017-11-22T09:27:05.436Z,50.90
2017-11-22T09:29:38.733Z,50.30
2017-11-22T09:32:11.828Z,49.70
2017-11-22T09:34:45.029Z,49.20
2017-11-22T09:37:15.166Z,48.80
2017-11-22T09:39:42.708Z,49.40
2017-11-22T09:42:10.200Z,48.00
2017-11-22T09:44:37.711Z,48.20
2017-11-22T09:47:05.211Z,47.80
2017-11-22T09:49:32.723Z,46.40
2017-11-22T09:52:00.269Z,46.50
2017-11-22T09:54:27.819Z,46.30
2017-11-22T09:56:55.323Z,46.30
2017-11-22T09:59:22.824Z,45.60
2017-11-22T10:01:50.356Z,45.80
2017-11-22T10:04:18.619Z,44.80
2017-11-22T10:06:46.140Z,44.80
2017-11-22T10:09:13.644Z,44.80
2017-11-22T10:11:41.944Z,44.90
2017-11-22T10:14:09.459Z,44.80
2017-11-22T10:16:36.997Z,44.00
2017-11-22T10:19:04.506Z,43.40
2017-11-22T10:21:32.813Z,43.60
2017-11-22T10:24:02.260Z,43.60
2017-11-22T10:26:29.791Z,43.20
2017-11-22T10:29:03.063Z,43.60
2017-11-22T10:31:30.587Z,43.20
2017-11-22T10:33:58.101Z,42.60
2017-11-22T10:36:25.641Z,43.20
2017-11-22T10:38:53.147Z,43.00
2017-11-22T10:41:20.677Z,42.70
2017-11-22T10:43:48.193Z,43.10
2017-11-22T10:46:16.489Z,43.40
2017-11-22T10:48:44.009Z,44.00
2017-11-22T10:51:11.571Z,43.30
2017-11-22T10:53:39.088Z,42.90
2017-11-22T10:56:06.611Z,42.40
2017-11-22T10:58:34.905Z,43.00
2017-11-22T11:01:02.405Z,42.30
2017-11-22T11:03:30.915Z,42.40
2017-11-22T11:05:58.432Z,41.40
2017-11-22T11:08:25.961Z,41.20
2017-11-22T11:10:53.459Z,40.80
2017-11-22T11:13:20.981Z,40.90
2017-11-22T11:15:48.493Z,40.90
2017-11-22T11:18:16.027Z,41.20
2017-11-22T11:20:43.531Z,40.80
2017-11-22T11:23:11.068Z,41.00
2017-11-22T11:25:38.577Z,41.10
2017-11-22T11:28:06.109Z,41.10
2017-11-22T11:30:34.384Z,41.10
2017-11-22T11:33:02.686Z,40.50
2017-11-22T11:35:41.890Z,40.40
2017-11-22T11:38:09.416Z,40.10
2017-11-22T11:40:36.933Z,40.10
2017-11-22T11:43:04.472Z,39.90
2017-11-22T11:45:31.985Z,40.10
2017-11-22T11:47:59.526Z,38.90
2017-11-22T11:50:27.035Z,38.60
2017-11-22T11:52:54.573Z,38.50
2017-11-22T11:55:22.072Z,38.40
2017-11-22T11:57:50.342Z,38.40
2017-11-22T12:00:17.882Z,38.30
2017-11-22T12:02:45.388Z,37.90
2017-11-22T12:05:12.903Z,37.80
2017-11-22T12:07:40.412Z,37.80
2017-11-22T12:10:07.945Z,36.90
2017-11-22T12:12:36.232Z,36.50
2017-11-22T12:15:04.541Z,36.10
2017-11-22T12:17:32.057Z,36.00
2017-11-22T12:19:59.585Z,35.90
2017-11-22T12:22:32.785Z,35.50
2017-11-22T12:25:00.403Z,35.40
2017-11-22T12:27:27.908Z,35.90
2017-11-22T12:29:55.429Z,34.80
2017-11-22T12:32:22.936Z,34.90
2017-11-22T12:34:50.460Z,35.20
2017-11-22T12:37:17.983Z,35.10
2017-11-22T12:39:46.288Z,34.80
2017-11-22T12:42:13.792Z,34.80
2017-11-22T12:44:41.325Z,34.90
2017-11-22T12:47:08.840Z,34.30
2017-11-22T12:49:36.381Z,34.10
2017-11-22T12:52:04.657Z,34.50
2017-11-22T12:54:32.928Z,34.20
2017-11-22T12:57:00.450Z,34.20
2017-11-22T12:59:27.956Z,34.20
2017-11-22T13:01:56.249Z,34.20
2017-11-22T13:04:23.759Z,34.10
2017-11-22T13:06:51.297Z,33.90
2017-11-22T13:09:18.821Z,34.20
2017-11-22T13:11:52.004Z,34.20
2017-11-22T13:14:20.284Z,33.90
2017-11-22T13:16:48.572Z,34.40
2017-11-22T13:19:16.099Z,34.20
2017-11-22T13:21:43.632Z,33.80
2017-11-22T13:24:11.151Z,33.70
2017-11-22T13:26:38.664Z,33.70
2017-11-22T13:29:06.189Z,33.90
2017-11-22T13:31:33.717Z,33.60
2017-11-22T13:34:01.989Z,34.20
2017-11-22T13:36:30.317Z,33.70
2017-11-22T13:38:57.824Z,33.60
2017-11-22T13:41:29.897Z,32.80
2017-11-22T13:43:57.419Z,32.70
2017-11-22T13:46:24.938Z,32.90
2017-11-22T13:48:52.465Z,32.70
2017-11-22T13:51:19.974Z,33.00
2017-11-22T13:53:47.518Z,33.30
2017-11-22T13:56:15.043Z,33.10
2017-11-22T13:58:42.572Z,33.00
2017-11-22T14:01:10.076Z,32.90
2017-11-22T14:03:38.356Z,33.30
2017-11-22T14:06:05.875Z,33.30
2017-11-22T14:08:33.407Z,33.30
2017-11-22T14:11:00.915Z,33.30
2017-11-22T14:13:29.212Z,33.50
2017-11-22T14:15:57.485Z,33.80
2017-11-22T14:18:25.053Z,33.60
2017-11-22T14:20:53.326Z,33.80
2017-11-22T14:23:20.870Z,33.70
2017-11-22T14:25:48.413Z,33.90
2017-11-22T14:28:15.917Z,34.00
2017-11-22T14:30:43.456Z,34.30
2017-11-22T14:33:11.733Z,34.50
2017-11-22T14:35:40.022Z,34.30
2017-11-22T14:38:07.544Z,34.20
2017-11-22T14:40:35.067Z,34.30
2017-11-22T14:43:03.352Z,35.00
2017-11-22T14:45:30.879Z,34.90
2017-11-22T14:47:58.401Z,35.00
2017-11-22T14:50:25.928Z,35.10
2017-11-22T14:52:53.449Z,35.60
2017-11-22T14:55:21.766Z,36.60
2017-11-22T14:57:49.290Z,36.60
2017-11-22T15:00:16.818Z,37.30
2017-11-22T15:02:44.352Z,37.80
2017-11-22T15:05:11.862Z,38.90
2017-11-22T15:07:39.387Z,38.90
2017-11-22T15:10:06.903Z,39.80
2017-11-22T15:12:34.434Z,40.40
2017-11-22T15:15:02.735Z,42.00
2017-11-22T15:17:30.266Z,41.90
2017-11-22T15:19:58.536Z,43.10
2017-11-22T15:22:26.068Z,43.00
2017-11-22T15:24:53.568Z,43.80
2017-11-22T15:27:21.878Z,44.60
2017-11-22T15:29:50.152Z,44.50
2017-11-22T15:32:17.671Z,44.40
2017-11-22T15:34:45.944Z,45.50
2017-11-22T15:37:13.483Z,45.30
2017-11-22T15:39:41.018Z,45.30
2017-11-22T15:42:08.640Z,45.30
2017-11-22T15:44:36.908Z,45.30
2017-11-22T15:47:04.434Z,45.30
2017-11-22T15:49:31.970Z,45.60
2017-11-22T15:51:59.497Z,45.70
2017-11-22T15:54:27.764Z,46.10
2017-11-22T15:56:55.301Z,46.00
2017-11-22T15:59:22.840Z,46.10
2017-11-22T16:01:50.350Z,46.20
2017-11-22T16:04:17.870Z,46.30
2017-11-22T16:06:45.375Z,46.40
2017-11-22T16:09:13.702Z,46.70
2017-11-22T16:11:41.242Z,46.60
2017-11-22T16:14:08.908Z,46.80
2017-11-22T16:16:36.409Z,46.90
2017-11-22T16:19:04.712Z,47.30
2017-11-22T16:21:32.237Z,47.20
2017-11-22T16:23:59.810Z,47.10
2017-11-22T16:26:28.116Z,47.40
2017-11-22T16:28:55.682Z,47.30
2017-11-22T16:31:23.201Z,47.50
2017-11-22T16:33:50.753Z,47.90
2017-11-22T16:36:18.283Z,47.70
2017-11-22T16:38:45.833Z,48.10
2017-11-22T16:41:13.355Z,47.90
2017-11-22T16:43:41.644Z,48.50
2017-11-22T16:46:09.154Z,48.40
2017-11-22T16:48:36.718Z,48.30
2017-11-22T16:51:04.243Z,48.50
2017-11-22T16:53:31.788Z,48.70
2017-11-22T16:55:59.337Z,48.80
2017-11-22T16:58:27.001Z,48.90
2017-11-22T17:00:54.545Z,48.60
2017-11-22T17:03:22.848Z,48.90
2017-11-22T17:05:50.372Z,48.70
2017-11-22T17:08:17.911Z,48.70
2017-11-22T17:10:45.437Z,48.80
2017-11-22T17:13:12.957Z,49.20
2017-11-22T17:15:41.244Z,49.50
2017-11-22T17:18:09.566Z,49.60
2017-11-22T17:20:37.157Z,49.40
2017-11-22T17:23:04.718Z,49.50
2017-11-22T17:25:32.249Z,49.40
2017-11-22T17:27:59.771Z,49.40
2017-11-22T17:30:27.359Z,49.50
2017-11-22T17:32:54.909Z,49.50
2017-11-22T17:35:22.436Z,49.60
2017-11-22T17:37:50.755Z,49.80
2017-11-22T17:40:18.329Z,49.70
2017-11-22T17:42:45.842Z,49.90
2017-11-22T17:45:14.133Z,50.20
2017-11-22T17:47:41.888Z,50.10
2017-11-22T17:50:09.475Z,50.20
2017-11-22T17:52:37.032Z,50.20
2017-11-22T17:55:04.604Z,50.30
2017-11-22T17:57:32.174Z,50.30
2017-11-22T17:59:59.696Z,50.30
2017-11-22T18:02:27.267Z,50.50
2017-11-22T18:04:54.814Z,51.40
2017-11-22T18:07:22.375Z,51.40
2017-11-22T18:09:49.878Z,51.60
2017-11-22T18:12:17.459Z,51.60
2017-11-22T18:14:45.011Z,51.60
2017-11-22T18:17:12.573Z,51.60
2017-11-22T18:19:40.126Z,51.70
2017-11-22T18:22:07.704Z,51.70
2017-11-22T18:24:36.039Z,51.80
2017-11-22T18:27:03.612Z,51.70
2017-11-22T18:29:31.163Z,51.90
2017-11-22T18:31:58.740Z,51.80
2017-11-22T18:34:26.307Z,51.90
2017-11-22T18:36:53.880Z,51.90
2017-11-22T18:39:21.428Z,52.10
2017-11-22T18:41:49.003Z,52.10
2017-11-22T18:44:16.574Z,52.20
2017-11-22T18:46:44.183Z,51.90
2017-11-22T18:49:11.729Z,52.40
2017-11-22T18:51:39.270Z,52.40
2017-11-22T18:54:06.878Z,52.50
2017-11-22T18:56:34.437Z,52.50
2017-11-22T18:59:02.007Z,52.70
2017-11-22T19:01:29.566Z,52.70
2017-11-22T19:03:57.087Z,52.80
2017-11-22T19:06:24.662Z,52.80
2017-11-22T19:08:52.231Z,52.90
2017-11-22T19:11:19.766Z,53.00
2017-11-22T19:13:47.363Z,53.00
2017-11-22T19:16:14.954Z,53.70
2017-11-22T19:18:43.261Z,53.50
2017-11-22T19:21:10.866Z,53.20
2017-11-22T19:23:38.428Z,53.20
2017-11-22T19:26:06.002Z,53.20
2017-11-22T19:28:33.545Z,53.30
2017-11-22T19:31:01.111Z,53.30
2017-11-22T19:33:28.671Z,53.40
2017-11-22T19:35:56.248Z,53.50
2017-11-22T19:38:24.576Z,53.90
2017-11-22T19:40:52.156Z,53.90
2017-11-22T19:43:19.702Z,53.90
2017-11-22T19:45:47.272Z,53.90
2017-11-22T19:48:14.825Z,54.00
2017-11-22T19:50:42.377Z,54.00
2017-11-22T19:53:09.881Z,54.00
2017-11-22T19:55:37.499Z,53.90
2017-11-22T19:58:05.052Z,53.90
2017-11-22T20:00:32.607Z,54.00
2017-11-22T20:03:00.177Z,54.00
2017-11-22T20:05:27.737Z,54.10
2017-11-22T20:11:01.994Z,54.20
2017-11-22T20:13:29.568Z,54.30
2017-11-22T20:15:57.152Z,54.40
2017-11-22T20:18:25.460Z,54.70
2017-11-22T20:20:53.029Z,54.30
2017-11-22T20:23:20.599Z,54.40
2017-11-22T20:25:48.787Z,54.40
2017-11-22T20:28:16.363Z,54.40
2017-11-22T20:30:43.924Z,54.30
2017-11-22T20:33:11.525Z,54.30
2017-11-22T20:35:39.093Z,54.40
2017-11-22T20:38:06.679Z,54.40
2017-11-22T20:40:34.235Z,54.40
2017-11-22T20:43:01.768Z,54.50
2017-11-22T20:45:29.330Z,54.60
2017-11-22T20:47:56.911Z,54.60
2017-11-22T20:50:24.463Z,54.70
2017-11-22T20:52:52.048Z,54.70
2017-11-22T20:55:19.599Z,54.60
2017-11-22T20:57:47.184Z,54.70
2017-11-22T21:00:14.739Z,54.70
2017-11-22T21:02:43.102Z,54.80
2017-11-22T21:05:10.684Z,54.80
2017-11-22T21:07:38.272Z,54.80
2017-11-22T21:10:06.639Z,54.80
2017-11-22T21:12:34.216Z,54.80
2017-11-22T21:15:01.799Z,54.80
2017-11-22T21:17:29.527Z,54.80
2017-11-22T21:19:57.885Z,54.90
2017-11-22T21:22:25.451Z,54.80
2017-11-22T21:24:52.971Z,54.90
2017-11-22T21:27:20.763Z,55.00
2017-11-22T21:29:48.322Z,54.80
2017-11-22T21:32:15.882Z,54.90
2017-11-22T21:34:43.428Z,55.10
2017-11-22T21:37:10.986Z,55.20
2017-11-22T21:39:38.547Z,55.20
2017-11-22T21:42:06.056Z,55.30
2017-11-22T21:44:34.389Z,55.40
2017-11-22T21:47:01.933Z,55.30
2017-11-22T21:49:29.448Z,55.40
2017-11-22T21:51:56.989Z,55.40
2017-11-22T21:54:24.570Z,55.30
2017-11-22T21:56:52.109Z,55.30
2017-11-22T21:59:19.667Z,55.30
2017-11-22T22:01:47.469Z,55.30
2017-11-22T22:04:15.046Z,55.40
2017-11-22T22:06:42.622Z,55.40
2017-11-22T22:09:10.179Z,55.50
2017-11-22T22:11:37.733Z,55.50
2017-11-22T22:14:05.267Z,55.40
2017-11-22T22:16:33.581Z,55.50
2017-11-22T22:19:01.082Z,55.40
2017-11-22T22:21:28.642Z,55.50
2017-11-22T22:23:56.188Z,55.40
2017-11-22T22:26:23.717Z,55.40
2017-11-22T22:28:51.215Z,55.30
2017-11-22T22:31:18.776Z,55.30
2017-11-22T22:33:46.322Z,55.30
2017-11-22T22:36:13.878Z,55.40
2017-11-22T22:38:41.409Z,55.40
2017-11-22T22:41:08.976Z,55.50
2017-11-22T22:43:36.510Z,55.50
2017-11-22T22:46:04.058Z,55.50
2017-11-22T22:48:32.328Z,55.60
2017-11-22T22:51:00.611Z,55.60
2017-11-22T22:53:28.905Z,55.60
2017-11-22T22:55:56.449Z,55.60
2017-11-22T22:58:24.737Z,55.60
2017-11-22T23:00:52.286Z,55.50
2017-11-22T23:03:20.560Z,55.60
2017-11-22T23:05:48.875Z,55.60
2017-11-22T23:08:16.395Z,55.60
2017-11-22T23:10:44.710Z,55.70
2017-11-22T23:13:12.275Z,55.50
2017-11-22T23:15:39.788Z,55.60
2017-11-22T23:18:07.299Z,55.70
2017-11-22T23:20:34.855Z,55.30
2017-11-22T23:23:02.372Z,55.60
2017-11-22T23:25:30.649Z,55.70
2017-11-22T23:27:58.941Z,55.60
2017-11-22T23:30:26.503Z,55.60
2017-11-22T23:32:54.065Z,55.70
2017-11-22T23:35:21.565Z,55.70
2017-11-22T23:37:49.109Z,55.70
2017-11-22T23:40:16.615Z,55.70
2017-11-22T23:42:44.879Z,55.70
2017-11-22T23:45:12.395Z,55.60
2017-11-22T23:47:39.914Z,55.60
2017-11-22T23:50:08.196Z,55.50
2017-11-22T23:52:36.472Z,55.60
2017-11-22T23:55:04.760Z,55.60
2017-11-22T23:57:32.268Z,55.60
2017-11-22T23:59:59.788Z,55.60
